Time;durP1;ratioP1;P1;durP2;ratioP2;P2;SDS_P1;SDS_P2;PMS_P1;PMS_P2;Temp;Humidity;BMP_temperature;BMP_pressure;BME280_temperature;BME280_humidity;BME280_pressure;Samples;Min_cycle;Max_cycle;Signal;HPM_P1;HPM_P2
2022/04/07 00:02:02;;;;;;;;;0.75;0.75;;;;;12.32;76.41;99820.72;5018420;28;45387;-71
2022/04/07 00:04:29;;;;;;;;;0.75;0.75;;;;;12.35;76.62;99824.03;5019762;28;45300;-71
2022/04/07 00:06:54;;;;;;;;;2.25;1.00;;;;;12.37;76.45;99822.16;5021459;28;46216;-71
2022/04/07 00:09:20;;;;;;;;;0.50;0.50;;;;;12.39;76.17;99820.25;5027813;28;45442;-71
2022/04/07 00:11:45;;;;;;;;;2.25;0.50;;;;;12.40;76.15;99823.72;5027872;28;45405;-71
2022/04/07 00:14:10;;;;;;;;;2.00;1.00;;;;;12.38;76.16;99817.72;5025884;28;45452;-71
2022/04/07 00:16:36;;;;;;;;;2.00;0.50;;;;;12.35;76.10;99812.63;5030521;28;46217;-71
2022/04/07 00:19:01;;;;;;;;;0.75;0.75;;;;;12.32;76.24;99797.03;5032070;28;45452;-71
2022/04/07 00:21:35;;;;;;;;;1.50;1.50;;;;;12.33;76.36;99798.72;5018348;28;45240;-71
2022/04/07 00:24:02;;;;;;;;;0.00;0.00;;;;;12.30;76.22;99786.59;5024846;28;45687;-71
2022/04/07 00:26:28;;;;;;;;;1.75;1.75;;;;;12.30;76.20;99794.50;5028196;28;45414;-71
2022/04/07 00:28:53;;;;;;;;;1.25;1.25;;;;;12.31;76.33;99788.28;5028666;28;45378;-71
2022/04/07 00:31:18;;;;;;;;;2.00;1.00;;;;;12.30;76.52;99791.84;5032870;28;45568;-71
2022/04/07 00:33:44;;;;;;;;;2.00;2.00;;;;;12.29;76.37;99790.16;5024880;28;45469;-71
2022/04/07 00:36:09;;;;;;;;;1.00;1.00;;;;;12.28;76.28;99784.06;5024359;28;45564;-71
2022/04/07 00:38:35;;;;;;;;;1.00;1.00;;;;;12.30;76.36;99778.69;5026418;28;45514;-71
2022/04/07 00:41:00;;;;;;;;;1.00;1.00;;;;;12.33;76.31;99783.75;5020478;28;45384;-71
2022/04/07 00:43:34;;;;;;;;;1.75;0.50;;;;;12.34;75.96;99782.81;5024565;28;45524;-71
2022/04/07 00:46:01;;;;;;;;;2.50;1.00;;;;;12.37;75.83;99779.13;5030863;28;46255;-71
2022/04/07 00:48:27;;;;;;;;;2.75;1.00;;;;;12.37;75.83;99771.22;5024814;28;45570;-71
2022/04/07 00:50:56;;;;;;;;;1.00;1.00;;;;;12.38;75.82;99765.88;5021925;28;45492;-72
2022/04/07 00:53:23;;;;;;;;;1.00;1.00;;;;;12.39;75.59;99759.66;5027450;28;45448;-71
2022/04/07 00:55:50;;;;;;;;;3.50;1.00;;;;;12.40;75.94;99758.69;5023778;28;45461;-71
2022/04/07 00:58:18;;;;;;;;;2.00;1.00;;;;;12.42;75.25;99740.13;5036386;28;45835;-71
2022/04/07 01:00:43;;;;;;;;;2.00;1.00;;;;;12.43;75.14;99732.16;5018358;28;45283;-71
2022/04/07 01:03:09;;;;;;;;;2.50;0.75;;;;;12.43;74.93;99733.94;5029112;28;45551;-71
2022/04/07 01:05:34;;;;;;;;;1.00;1.00;;;;;12.42;74.97;99730.44;5030288;28;46275;-71
2022/04/07 01:07:59;;;;;;;;;1.00;1.00;;;;;12.42;74.93;99713.78;5027442;28;45565;-71
2022/04/07 01:10:25;;;;;;;;;0.50;0.50;;;;;12.42;74.83;99712.00;5033166;28;51267;-71
2022/04/07 01:12:50;;;;;;;;;1.25;0.00;;;;;12.41;74.80;99706.84;5030911;28;45437;-71
2022/04/07 01:15:15;;;;;;;;;1.00;1.00;;;;;12.40;75.01;99702.53;5030588;28;45393;-71
2022/04/07 01:17:41;;;;;;;;;1.00;1.00;;;;;12.40;75.03;99689.34;5025418;28;45501;-71
2022/04/07 01:20:08;;;;;;;;;1.00;1.00;;;;;12.41;74.91;99681.31;5035597;28;45933;-71
2022/04/07 01:22:40;;;;;;;;;2.00;0.00;;;;;12.43;75.06;99683.88;5032247;28;46306;-71
2022/04/07 01:25:06;;;;;;;;;1.75;1.25;;;;;12.45;74.97;99674.06;5030479;28;46353;-71
2022/04/07 01:27:32;;;;;;;;;3.00;1.25;;;;;12.45;74.99;99680.19;5032174;28;45298;-71
2022/04/07 01:30:04;;;;;;;;;1.00;1.00;;;;;12.45;75.21;99676.72;5026962;28;45520;-70
2022/04/07 01:32:34;;;;;;;;;1.00;1.00;;;;;12.46;74.92;99675.75;5033633;28;45606;-69
2022/04/07 01:35:00;;;;;;;;;4.50;0.75;;;;;12.46;75.08;99670.47;5030817;28;46741;-69
2022/04/07 01:37:26;;;;;;;;;1.00;1.00;;;;;12.45;75.08;99660.91;5030213;28;45497;-69
2022/04/07 01:39:51;;;;;;;;;0.50;0.50;;;;;12.45;75.09;99669.66;5025588;28;45535;-69
2022/04/07 01:42:17;;;;;;;;;1.75;0.75;;;;;12.45;75.09;99674.06;5027166;28;45423;-69
2022/04/07 01:44:48;;;;;;;;;1.75;1.75;;;;;12.44;75.20;99673.22;5029119;28;46026;-69
2022/04/07 01:47:18;;;;;;;;;1.00;0.00;;;;;12.44;75.43;99661.84;5025017;28;45318;-69
2022/04/07 01:49:46;;;;;;;;;2.25;1.00;;;;;12.40;75.47;99648.03;5024712;28;45462;-70
2022/04/07 01:52:14;;;;;;;;;2.00;1.00;;;;;12.41;75.34;99654.13;5034821;28;45473;-70
2022/04/07 01:54:43;;;;;;;;;1.00;1.00;;;;;12.40;75.41;99650.66;5031371;28;45830;-69
2022/04/07 01:57:10;;;;;;;;;0.00;0.00;;;;;12.40;75.82;99649.81;5030302;28;45869;-70
2022/04/07 01:59:36;;;;;;;;;3.50;1.00;;;;;12.37;81.72;99653.53;5037576;28;45397;-70
2022/04/07 02:02:02;;;;;;;;;3.00;0.00;;;;;12.21;85.49;99644.94;5026732;28;45473;-70
2022/04/07 02:04:27;;;;;;;;;2.75;1.25;;;;;12.02;91.98;99640.06;5033643;28;45393;-70
2022/04/07 02:06:52;;;;;;;;;6.50;2.00;;;;;11.91;84.72;99642.56;5022192;28;45472;-70
2022/04/07 02:09:17;;;;;;;;;1.00;1.00;;;;;11.87;82.17;99648.97;5031690;28;45631;-70
2022/04/07 02:11:44;;;;;;;;;4.75;2.00;;;;;11.87;82.17;99635.81;5031887;28;45547;-70
2022/04/07 02:14:09;;;;;;;;;3.00;1.00;;;;;11.86;81.22;99619.19;5023153;28;46361;-70
2022/04/07 02:16:35;;;;;;;;;1.75;0.00;;;;;11.87;81.49;99631.41;5020369;28;48513;-70
2022/04/07 02:19:00;;;;;;;;;5.25;1.25;;;;;11.89;81.27;99631.28;5028788;28;45734;-70
2022/04/07 02:21:26;;;;;;;;;2.00;1.00;;;;;11.90;81.24;99628.56;5025763;28;45443;-70
2022/04/07 02:23:52;;;;;;;;;2.00;0.50;;;;;11.91;81.50;99614.47;5032245;28;46075;-70
2022/04/07 02:26:17;;;;;;;;;3.00;2.00;;;;;11.92;80.87;99608.25;5026999;28;45880;-70
2022/04/07 02:28:43;;;;;;;;;1.00;1.00;;;;;11.95;81.06;99615.94;5014184;28;45322;-70
2022/04/07 02:31:09;;;;;;;;;2.75;2.25;;;;;11.98;81.36;99620.16;5033343;28;45523;-70
2022/04/07 02:33:36;;;;;;;;;4.00;2.00;;;;;11.97;81.48;99602.66;5034009;28;46255;-70
2022/04/07 02:36:06;;;;;;;;;3.00;1.00;;;;;11.98;82.02;99599.09;5032420;28;45428;-70
2022/04/07 02:38:32;;;;;;;;;3.00;2.00;;;;;11.99;82.07;99588.44;5030652;28;45523;-69
2022/04/07 02:40:57;;;;;;;;;4.25;2.00;;;;;11.98;82.17;99578.03;5027370;28;45446;-70
2022/04/07 02:43:22;;;;;;;;;2.50;1.50;;;;;11.99;82.59;99561.28;5034416;28;45490;-69
2022/04/07 02:45:48;;;;;;;;;3.25;2.25;;;;;11.96;83.25;99566.75;5019524;28;45340;-69
2022/04/07 02:48:13;;;;;;;;;3.75;1.75;;;;;11.92;82.95;99557.38;5031325;28;45476;-69
2022/04/07 02:50:38;;;;;;;;;1.00;0.75;;;;;11.90;83.60;99559.25;5032114;28;45307;-69
2022/04/07 02:53:04;;;;;;;;;3.00;1.50;;;;;11.89;82.69;99558.41;5023691;28;45717;-69
2022/04/07 02:55:29;;;;;;;;;4.50;1.00;;;;;11.90;83.11;99546.97;5029242;28;45484;-69
2022/04/07 02:57:58;;;;;;;;;3.25;2.00;;;;;11.90;83.68;99543.47;5026418;28;45298;-69
2022/04/07 03:00:24;;;;;;;;;2.75;1.00;;;;;11.91;83.76;99537.28;5020985;28;45476;-69
2022/04/07 03:02:49;;;;;;;;;1.00;1.00;;;;;11.91;83.31;99529.38;5026716;28;45867;-69
2022/04/07 03:05:15;;;;;;;;;4.00;1.00;;;;;11.91;83.99;99521.47;5029470;28;45426;-70
2022/04/07 03:07:41;;;;;;;;;4.50;0.75;;;;;11.91;83.89;99514.41;5028466;28;45591;-69
2022/04/07 03:10:07;;;;;;;;;1.00;1.00;;;;;11.90;84.08;99509.22;5032441;28;45378;-70
2022/04/07 03:12:32;;;;;;;;;2.50;2.00;;;;;11.93;83.96;99501.97;5023051;28;46011;-69
2022/04/07 03:14:58;;;;;;;;;1.75;1.50;;;;;11.94;84.04;99505.44;5023761;28;45282;-70
2022/04/07 03:17:23;;;;;;;;;1.50;1.00;;;;;11.92;83.92;99494.19;5025820;28;45507;-70
2022/04/07 03:19:48;;;;;;;;;1.25;1.00;;;;;11.91;84.25;99476.72;5023434;28;45500;-70
2022/04/07 03:22:15;;;;;;;;;3.00;1.00;;;;;11.91;84.54;99469.66;5027358;28;59794;-70
2022/04/07 03:24:41;;;;;;;;;3.25;2.25;;;;;11.92;84.18;99463.44;5019751;28;45470;-70
2022/04/07 03:27:07;;;;;;;;;2.25;2.00;;;;;11.93;84.69;99472.19;5027759;28;45559;-70
2022/04/07 03:29:34;;;;;;;;;3.00;1.00;;;;;11.85;85.30;99456.94;5025270;28;46389;-70
2022/04/07 03:31:59;;;;;;;;;1.00;1.00;;;;;11.84;85.16;99455.22;5022670;28;46435;-70
2022/04/07 03:34:24;;;;;;;;;5.00;3.50;;;;;11.85;85.26;99440.25;5031553;28;45531;-70
2022/04/07 03:36:50;;;;;;;;;5.50;2.00;;;;;11.86;85.13;99432.28;5025714;28;45417;-70
2022/04/07 03:39:15;;;;;;;;;3.00;1.50;;;;;11.86;85.13;99421.75;5018906;28;48078;-70
2022/04/07 03:41:40;;;;;;;;;3.50;2.00;;;;;11.90;85.14;99411.81;5027502;28;46039;-70
2022/04/07 03:44:09;;;;;;;;;5.00;2.00;;;;;11.92;85.42;99399.41;5023170;28;45355;-70
2022/04/07 03:46:35;;;;;;;;;1.00;1.00;;;;;11.93;85.02;99412.47;5020517;28;45397;-70
2022/04/07 03:49:00;;;;;;;;;5.50;1.75;;;;;11.93;85.72;99393.19;5023276;28;45409;-70
2022/04/07 03:51:26;;;;;;;;;2.50;1.75;;;;;11.89;85.65;99375.94;5034239;28;45873;-70
2022/04/07 03:53:51;;;;;;;;;2.50;2.00;;;;;11.91;85.90;99367.00;5026194;28;45481;-70
2022/04/07 03:56:16;;;;;;;;;4.50;3.75;;;;;11.92;86.68;99370.47;5029465;28;49539;-70
2022/04/07 03:58:42;;;;;;;;;2.00;2.00;;;;;11.90;86.38;99352.16;5018808;28;45589;-70
2022/04/07 04:01:07;;;;;;;;;3.00;2.50;;;;;11.93;86.10;99345.81;5023844;28;46248;-70
2022/04/07 04:03:32;;;;;;;;;2.00;2.00;;;;;11.95;86.33;99347.41;5034423;28;45338;-70
2022/04/07 04:05:58;;;;;;;;;1.50;1.00;;;;;11.97;86.12;99336.75;5030668;28;45565;-70
2022/04/07 04:08:23;;;;;;;;;2.50;2.00;;;;;11.97;90.55;99332.31;5027448;28;46855;-70
2022/04/07 04:10:48;;;;;;;;;3.00;1.75;;;;;12.00;86.85;99325.97;5027682;28;45587;-70
2022/04/07 04:13:14;;;;;;;;;7.25;2.00;;;;;12.00;86.22;99324.19;5033415;28;49329;-70
2022/04/07 04:15:39;;;;;;;;;1.00;1.00;;;;;12.01;86.60;99311.91;5022185;28;45543;-70
2022/04/07 04:18:05;;;;;;;;;2.25;1.00;;;;;12.04;86.51;99319.56;5028442;28;45435;-70
2022/04/07 04:20:30;;;;;;;;;2.00;2.00;;;;;12.06;86.47;99314.16;5028243;28;46189;-70
2022/04/07 04:22:55;;;;;;;;;4.00;2.25;;;;;12.08;86.24;99292.06;5031180;28;45628;-70
2022/04/07 04:25:22;;;;;;;;;6.25;1.00;;;;;12.08;86.31;99299.97;5020048;28;45339;-70
2022/04/07 04:27:48;;;;;;;;;1.50;1.50;;;;;12.11;86.33;99297.13;5015558;28;45327;-69
2022/04/07 04:30:13;;;;;;;;;4.00;1.00;;;;;12.13;86.41;99303.09;5025097;28;46133;-69
2022/04/07 04:32:39;;;;;;;;;3.75;2.00;;;;;12.16;86.41;99307.28;5032316;28;45294;-69
2022/04/07 04:35:05;;;;;;;;;3.00;2.00;;;;;12.16;86.82;99310.78;5032000;28;45380;-70
2022/04/07 04:37:31;;;;;;;;;1.00;1.00;;;;;12.13;87.05;99300.47;5035220;28;45355;-70
2022/04/07 04:39:56;;;;;;;;;3.25;1.50;;;;;12.10;87.95;99292.78;5034515;28;47937;-70
2022/04/07 04:42:22;;;;;;;;;3.00;2.00;;;;;12.10;89.92;99292.78;5031800;28;45504;-70
2022/04/07 04:44:47;;;;;;;;;5.75;3.00;;;;;12.11;88.74;99283.94;5028235;28;45490;-70
2022/04/07 04:47:13;;;;;;;;;3.25;2.00;;;;;12.15;87.83;99277.47;5028243;28;45673;-69
2022/04/07 04:49:42;;;;;;;;;4.00;3.00;;;;;12.22;87.03;99280.53;5036390;28;46062;-69
2022/04/07 04:52:08;;;;;;;;;6.00;3.00;;;;;12.25;87.05;99281.13;5027946;28;45512;-69
2022/04/07 04:54:33;;;;;;;;;3.25;2.00;;;;;12.26;87.27;99279.34;5029941;28;45738;-69
2022/04/07 04:56:59;;;;;;;;;3.50;2.25;;;;;12.28;87.23;99262.47;5025730;28;45712;-69
2022/04/07 04:59:24;;;;;;;;;4.00;1.33;;;;;12.29;87.21;99268.59;5030260;28;63611;-69
2022/04/07 05:01:49;;;;;;;;;2.00;2.00;;;;;12.32;86.88;99259.59;5035942;28;45429;-69
2022/04/07 05:04:15;;;;;;;;;3.00;2.00;;;;;12.33;86.95;99269.22;5035775;28;52230;-70
2022/04/07 05:06:40;;;;;;;;;1.25;1.25;;;;;12.36;86.87;99268.97;5023964;28;54270;-69
2022/04/07 05:09:05;;;;;;;;;1.75;1.25;;;;;12.39;86.94;99258.22;5032981;28;45693;-69
2022/04/07 05:11:30;;;;;;;;;2.00;2.00;;;;;12.42;86.80;99250.06;5030009;28;45418;-69
2022/04/07 05:13:56;;;;;;;;;2.25;1.00;;;;;12.44;86.61;99254.28;5021617;28;45437;-69
2022/04/07 05:16:21;;;;;;;;;2.00;2.00;;;;;12.48;86.51;99253.13;5035858;28;45389;-69
2022/04/07 05:18:48;;;;;;;;;2.50;1.00;;;;;12.50;86.54;99248.56;5035701;28;48524;-69
2022/04/07 05:21:14;;;;;;;;;3.00;1.25;;;;;12.52;86.11;99249.28;5031950;28;45783;-69
2022/04/07 05:23:40;;;;;;;;;0.00;0.00;;;;;12.55;85.94;99227.13;5031951;28;45651;-69
2022/04/07 05:26:06;;;;;;;;;2.50;1.00;;;;;12.58;86.13;99223.41;5030521;28;45519;-69
2022/04/07 05:28:31;;;;;;;;;3.25;1.50;;;;;12.60;86.13;99235.53;5028348;28;46600;-69
2022/04/07 05:30:56;;;;;;;;;2.50;2.25;;;;;12.64;85.58;99249.34;5015735;28;47045;-70
2022/04/07 05:33:22;;;;;;;;;1.00;1.00;;;;;12.65;85.85;99230.75;5032098;28;45291;-70
2022/04/07 05:35:47;;;;;;;;;3.50;1.00;;;;;12.69;85.04;99223.47;5031616;28;45585;-70
2022/04/07 05:38:13;;;;;;;;;1.50;1.50;;;;;12.73;84.92;99212.56;5031517;28;46326;-70
2022/04/07 05:40:38;;;;;;;;;2.75;1.75;;;;;12.75;85.01;99205.38;5035360;28;45326;-70
2022/04/07 05:43:04;;;;;;;;;5.50;3.00;;;;;12.80;84.93;99197.13;5027687;28;45491;-70
2022/04/07 05:45:30;;;;;;;;;2.00;1.75;;;;;12.80;84.73;99208.50;5031592;28;45250;-70
2022/04/07 05:47:55;;;;;;;;;4.75;1.25;;;;;12.83;84.65;99177.59;5030904;28;47824;-70
2022/04/07 05:50:20;;;;;;;;;6.25;3.00;;;;;12.85;84.48;99194.13;5031080;28;51061;-70
2022/04/07 05:52:46;;;;;;;;;3.50;1.00;;;;;12.85;84.61;99180.97;5031169;28;45275;-70
2022/04/07 05:55:11;;;;;;;;;3.00;1.75;;;;;12.86;84.37;99182.63;5025501;28;45388;-70
2022/04/07 05:57:36;;;;;;;;;4.00;2.75;;;;;12.86;84.31;99187.91;5026971;28;45425;-70
2022/04/07 06:00:08;;;;;;;;;2.75;0.25;;;;;12.86;84.30;99186.09;5030519;28;45385;-70
2022/04/07 06:02:33;;;;;;;;;4.75;2.00;;;;;12.87;84.10;99187.78;5030122;28;45590;-70
2022/04/07 06:04:58;;;;;;;;;4.75;3.00;;;;;12.89;84.14;99195.56;5030417;28;45803;-70
2022/04/07 06:07:24;;;;;;;;;1.50;1.00;;;;;12.92;83.72;99187.44;5033621;28;52196;-70
2022/04/07 06:09:49;;;;;;;;;3.75;1.50;;;;;12.92;83.50;99185.63;5022059;28;45502;-70
2022/04/07 06:12:15;;;;;;;;;4.25;2.00;;;;;12.96;83.32;99188.88;5028566;28;45490;-70
2022/04/07 06:14:40;;;;;;;;;3.50;3.50;;;;;12.98;83.04;99179.88;5034378;28;45587;-70
2022/04/07 06:17:05;;;;;;;;;5.50;1.75;;;;;13.01;82.81;99199.91;5030867;28;47303;-70
2022/04/07 06:19:31;;;;;;;;;3.25;1.00;;;;;13.01;82.57;99184.91;5033189;28;45525;-70
2022/04/07 06:21:56;;;;;;;;;1.50;1.00;;;;;13.04;82.33;99170.63;5032716;28;45467;-70
2022/04/07 06:24:21;;;;;;;;;2.00;2.00;;;;;13.06;82.20;99185.41;5030983;28;52094;-70
2022/04/07 06:26:49;;;;;;;;;5.00;4.00;;;;;13.09;81.95;99175.56;5030160;28;62726;-70
2022/04/07 06:29:14;;;;;;;;;2.75;1.75;;;;;13.10;81.77;99170.16;5029456;28;45739;-70
2022/04/07 06:31:40;;;;;;;;;4.50;1.75;;;;;13.13;81.45;99182.28;5026678;28;45583;-70
2022/04/07 06:34:05;;;;;;;;;3.00;1.50;;;;;13.13;81.49;99175.22;5028004;28;47865;-70
2022/04/07 06:36:30;;;;;;;;;5.00;2.00;;;;;13.15;81.19;99178.56;5030792;28;46259;-70
2022/04/07 06:38:56;;;;;;;;;3.75;2.00;;;;;13.15;81.15;99160.09;5033066;28;52084;-70
2022/04/07 06:41:21;;;;;;;;;2.50;1.00;;;;;13.15;81.29;99159.25;5036521;28;45610;-70
2022/04/07 06:43:46;;;;;;;;;1.75;1.00;;;;;13.14;80.89;99154.94;5030470;28;45400;-70
2022/04/07 06:46:12;;;;;;;;;1.75;1.75;;;;;13.15;81.42;99157.44;5033454;28;46120;-70
2022/04/07 06:48:37;;;;;;;;;1.00;1.00;;;;;13.14;83.42;99160.22;5034492;28;45506;-70
2022/04/07 06:51:02;;;;;;;;;1.00;0.25;;;;;13.11;82.37;99163.94;5029150;28;45423;-70
2022/04/07 06:53:28;;;;;;;;;2.00;2.00;;;;;13.13;82.00;99177.00;5030272;28;45570;-70
2022/04/07 06:55:53;;;;;;;;;2.00;1.00;;;;;13.13;85.83;99155.91;5030591;28;45973;-70
2022/04/07 06:58:18;;;;;;;;;1.25;1.00;;;;;13.14;83.81;99155.78;5034058;28;55185;-70
2022/04/07 07:00:45;;;;;;;;;1.75;1.75;;;;;13.15;83.69;99154.81;5031920;28;45450;-70
2022/04/07 07:03:15;;;;;;;;;0.00;0.00;;;;;13.22;82.97;99148.16;5035507;28;45812;-70
2022/04/07 07:05:41;;;;;;;;;1.00;1.00;;;;;13.26;82.72;99152.22;5029594;28;45982;-70
2022/04/07 07:08:11;;;;;;;;;1.75;1.00;;;;;13.28;82.62;99147.66;5029943;28;45351;-70
2022/04/07 07:10:36;;;;;;;;;2.50;2.50;;;;;13.27;82.32;99164.44;5031672;28;45410;-71
2022/04/07 07:13:02;;;;;;;;;1.00;1.00;;;;;13.30;82.47;99153.63;5033438;28;45676;-70
2022/04/07 07:15:27;;;;;;;;;1.00;1.00;;;;;13.30;82.48;99139.59;5027151;28;45464;-71
2022/04/07 07:17:53;;;;;;;;;0.50;0.25;;;;;13.31;82.41;99149.19;5027038;28;45904;-70
2022/04/07 07:20:19;;;;;;;;;1.00;1.00;;;;;13.34;82.53;99150.75;5031017;28;45648;-70
2022/04/07 07:22:44;;;;;;;;;1.00;1.00;;;;;13.34;82.41;99141.03;5045620;28;45433;-70
2022/04/07 07:25:10;;;;;;;;;1.00;1.00;;;;;13.34;82.59;99150.75;5034415;28;45462;-71
2022/04/07 07:27:37;;;;;;;;;1.00;1.00;;;;;13.35;82.86;99139.25;5030076;28;45762;-70
2022/04/07 07:30:03;;;;;;;;;1.25;1.25;;;;;13.39;82.82;99148.59;5033390;28;45372;-70
2022/04/07 07:32:29;;;;;;;;;0.25;0.25;;;;;13.39;82.50;99138.88;5029611;28;45525;-70
2022/04/07 07:34:54;;;;;;;;;1.00;0.25;;;;;13.41;83.75;99142.22;5027842;28;45271;-71
2022/04/07 07:37:19;;;;;;;;;2.00;1.00;;;;;13.35;91.04;99147.16;5032615;28;55794;-70
2022/04/07 07:39:45;;;;;;;;;1.00;1.00;;;;;13.29;91.74;99138.78;5031470;28;45406;-71
2022/04/07 07:42:10;;;;;;;;;0.50;0.50;;;;;13.28;87.52;99152.09;5024419;28;45248;-71
2022/04/07 07:44:35;;;;;;;;;4.00;4.00;;;;;13.32;84.75;99133.25;5029044;28;45451;-71
2022/04/07 07:47:01;;;;;;;;;0.75;0.75;;;;;13.37;84.36;99127.63;5032169;28;45486;-71
2022/04/07 07:49:26;;;;;;;;;0.75;0.75;;;;;13.41;83.72;99117.63;5031558;28;45481;-71
2022/04/07 07:51:52;;;;;;;;;2.00;2.00;;;;;13.44;83.62;99120.03;5031571;28;45303;-71
2022/04/07 07:54:17;;;;;;;;;0.00;0.00;;;;;13.48;83.55;99105.66;5028723;28;56101;-72
2022/04/07 07:56:42;;;;;;;;;0.50;0.50;;;;;13.51;83.35;99119.41;5029385;28;45448;-71
2022/04/07 07:59:08;;;;;;;;;0.00;0.00;;;;;13.57;83.52;99116.31;5029511;28;45522;-71
2022/04/07 08:01:33;;;;;;;;;0.00;0.00;;;;;13.64;83.48;99111.34;5033154;28;47107;-71
2022/04/07 08:03:58;;;;;;;;;0.00;0.00;;;;;13.72;83.43;99102.78;5036409;28;45459;-70
2022/04/07 08:06:24;;;;;;;;;0.75;0.75;;;;;13.79;84.00;99096.06;5032861;28;45499;-70
2022/04/07 08:08:49;;;;;;;;;0.50;0.50;;;;;13.91;83.29;99102.13;5032296;28;46208;-70
2022/04/07 08:11:14;;;;;;;;;0.00;0.00;;;;;13.97;83.27;99098.97;5033009;28;45484;-72
2022/04/07 08:13:40;;;;;;;;;1.25;0.75;;;;;14.01;83.13;99093.31;5034134;28;55087;-71
2022/04/07 08:16:05;;;;;;;;;0.75;0.75;;;;;14.01;82.97;99090.69;5033450;28;53564;-70
2022/04/07 08:18:31;;;;;;;;;0.00;0.00;;;;;14.04;85.01;99081.63;5033073;28;45629;-70
2022/04/07 08:20:56;;;;;;;;;0.00;0.00;;;;;14.11;83.72;99101.31;5037191;28;45534;-71
2022/04/07 08:23:22;;;;;;;;;0.00;0.00;;;;;14.15;83.29;99091.31;5036316;28;46459;-70
2022/04/07 08:25:47;;;;;;;;;0.00;0.00;;;;;14.25;82.75;99089.56;5032739;28;45517;-71
2022/04/07 08:28:12;;;;;;;;;0.75;0.00;;;;;14.32;82.77;99096.88;5037248;28;45415;-70
2022/04/07 08:30:38;;;;;;;;;0.75;0.00;;;;;14.53;82.41;99101.34;5033290;28;45542;-71
2022/04/07 08:33:04;;;;;;;;;0.50;0.00;;;;;14.73;81.98;99089.88;5035959;28;45511;-70
2022/04/07 08:35:30;;;;;;;;;4.25;1.50;;;;;15.01;81.27;99082.19;5029608;28;45746;-71
2022/04/07 08:37:55;;;;;;;;;0.00;0.00;;;;;15.23;81.18;99089.91;5034374;28;45686;-72
2022/04/07 08:40:21;;;;;;;;;0.00;0.00;;;;;15.47;79.18;99091.34;5034540;28;45480;-71
2022/04/07 08:42:47;;;;;;;;;0.00;0.00;;;;;15.70;78.47;99074.25;5033674;28;46850;-70
2022/04/07 08:45:12;;;;;;;;;0.00;0.00;;;;;15.86;77.86;99065.75;5030512;28;45560;-70
2022/04/07 08:47:40;;;;;;;;;0.00;0.00;;;;;16.11;77.46;99070.47;5029732;28;45820;-71
2022/04/07 08:50:06;;;;;;;;;0.00;0.00;;;;;16.33;76.34;99076.44;5031102;28;45401;-71
2022/04/07 08:52:35;;;;;;;;;0.00;0.00;;;;;16.48;75.61;99076.81;5022527;28;45571;-71
2022/04/07 08:55:01;;;;;;;;;0.00;0.00;;;;;16.46;75.98;99082.28;5033100;28;45335;-71
2022/04/07 08:57:29;;;;;;;;;0.00;0.00;;;;;16.47;75.20;99081.28;5032438;28;45508;-71
2022/04/07 08:59:55;;;;;;;;;1.00;0.00;;;;;16.47;74.28;99083.09;5031471;28;45747;-70
2022/04/07 09:02:20;;;;;;;;;0.00;0.00;;;;;16.42;74.49;99071.09;5032831;28;46161;-71
2022/04/07 09:04:45;;;;;;;;;0.00;0.00;;;;;16.41;74.81;99079.22;5032406;28;45793;-71
2022/04/07 09:07:12;;;;;;;;;0.50;0.00;;;;;16.39;74.07;99084.66;5023393;28;45612;-71
2022/04/07 09:09:38;;;;;;;;;0.00;0.00;;;;;16.37;74.19;99081.31;5034948;28;45765;-71
2022/04/07 09:12:04;;;;;;;;;0.00;0.00;;;;;16.33;73.98;99071.13;5033274;28;47115;-71
2022/04/07 09:14:34;;;;;;;;;0.00;0.00;;;;;16.31;73.91;99091.66;5025775;28;45434;-70
2022/04/07 09:17:00;;;;;;;;;0.00;0.00;;;;;16.22;74.03;99074.78;5029493;28;45559;-71
2022/04/07 09:19:26;;;;;;;;;0.00;0.00;;;;;16.21;74.48;99066.97;5031882;28;45437;-70
2022/04/07 09:22:13;;;;;;;;;0.75;0.00;;;;;16.47;74.48;99077.81;5029074;28;48116;-70
2022/04/07 09:24:40;;;;;;;;;0.00;0.00;;;;;16.60;74.16;99065.91;5032988;28;45908;-70
2022/04/07 09:27:08;;;;;;;;;0.00;0.00;;;;;16.70;73.35;99061.41;5023943;28;45329;-70
2022/04/07 09:29:42;;;;;;;;;0.00;0.00;;;;;16.79;74.25;99078.28;5033611;28;45441;-70
2022/04/07 09:32:20;;;;;;;;;0.00;0.00;;;;;17.06;73.17;99076.63;5015526;28;45822;-71
2022/04/07 09:34:58;;;;;;;;;0.00;0.00;;;;;16.90;73.19;99069.28;5039119;28;45551;-71
2022/04/07 09:37:28;;;;;;;;;0.00;0.00;;;;;16.80;73.65;99077.28;5038874;28;45557;-72
2022/04/07 09:40:07;;;;;;;;;0.00;0.00;;;;;16.78;73.18;99073.13;5022951;28;46027;-70
2022/04/07 09:42:34;;;;;;;;;0.50;0.00;;;;;16.75;73.29;99071.59;5031139;28;47093;-71
2022/04/07 09:45:01;;;;;;;;;0.00;0.00;;;;;16.85;73.30;99069.72;5019713;28;45525;-71
2022/04/07 09:47:46;;;;;;;;;0.00;0.00;;;;;17.14;73.05;99085.53;5036871;28;45732;-71
2022/04/07 09:50:33;;;;;;;;;0.00;0.00;;;;;17.44;72.30;99083.53;5035145;28;45574;-71
2022/04/07 09:53:04;;;;;;;;;0.00;0.00;;;;;17.49;71.47;99081.25;5030945;28;46355;-71
2022/04/07 09:55:41;;;;;;;;;1.75;0.00;;;;;17.42;71.38;99091.63;5014365;28;46205;-71
2022/04/07 09:58:08;;;;;;;;;0.00;0.00;;;;;17.36;71.02;99092.22;5032764;28;45334;-71
2022/04/07 10:00:34;;;;;;;;;1.25;0.00;;;;;17.38;71.34;99082.31;5019688;28;45533;-70
2022/04/07 10:03:02;;;;;;;;;0.00;0.00;;;;;17.45;71.03;99086.03;5038443;28;46718;-71
2022/04/07 10:05:37;;;;;;;;;0.00;0.00;;;;;17.51;71.12;99066.00;5034065;28;45755;-71
2022/04/07 10:08:04;;;;;;;;;18.25;16.00;;;;;17.69;70.65;99092.56;5031863;28;45515;-71
2022/04/07 10:10:30;;;;;;;;;1.00;1.00;;;;;17.79;70.53;99092.53;5003830;28;45536;-71
2022/04/07 10:12:57;;;;;;;;;0.00;0.00;;;;;17.80;70.35;99081.78;5023322;28;45448;-70
2022/04/07 10:15:23;;;;;;;;;0.00;0.00;;;;;17.90;69.74;99092.28;5015583;28;45594;-71
2022/04/07 10:17:48;;;;;;;;;0.00;0.00;;;;;17.88;69.17;99086.31;5030702;28;45596;-69
2022/04/07 10:20:18;;;;;;;;;0.00;0.00;;;;;17.84;69.92;99085.75;5032412;28;45501;-70
2022/04/07 10:23:08;;;;;;;;;0.00;0.00;;;;;17.74;70.46;99082.34;5037572;28;45597;-70
2022/04/07 10:25:39;;;;;;;;;0.00;0.00;;;;;17.56;71.85;99106.22;5031772;28;46022;-69
2022/04/07 10:28:04;;;;;;;;;0.00;0.00;;;;;17.34;74.22;99128.72;5024717;28;45457;-69
2022/04/07 10:30:30;;;;;;;;;0.00;0.00;;;;;17.02;74.03;99157.50;5039313;28;45426;-70
2022/04/07 10:32:58;;;;;;;;;0.75;0.00;;;;;16.77;74.20;99166.97;5036270;28;46127;-70
2022/04/07 10:35:29;;;;;;;;;0.00;0.00;;;;;16.69;75.34;99164.97;5027876;28;45971;-69
2022/04/07 10:38:16;;;;;;;;;0.00;0.00;;;;;16.73;76.09;99177.00;5034009;28;46485;-69
2022/04/07 10:40:51;;;;;;;;;0.00;0.00;;;;;16.80;75.20;99183.41;5033968;28;45589;-70
2022/04/07 10:43:21;;;;;;;;;1.25;0.00;;;;;16.76;75.97;99183.84;5033812;28;46463;-69
2022/04/07 10:45:49;;;;;;;;;1.00;1.00;;;;;16.80;75.74;99183.41;5041022;28;46090;-70
2022/04/07 10:48:32;;;;;;;;;0.50;0.00;;;;;16.87;74.31;99211.06;5039303;28;45582;-71
2022/04/07 10:51:08;;;;;;;;;0.50;0.00;;;;;17.01;74.64;99191.16;5037940;28;45334;-71
2022/04/07 10:53:37;;;;;;;;;0.00;0.00;;;;;17.16;73.11;99200.34;5031817;28;45385;-70
2022/04/07 10:56:06;;;;;;;;;1.25;0.00;;;;;17.20;73.25;99196.41;5025061;28;45575;-69
2022/04/07 10:58:40;;;;;;;;;0.00;0.00;;;;;17.25;72.90;99216.38;5024781;28;45578;-70
2022/04/07 11:01:06;;;;;;;;;0.00;0.00;;;;;17.37;73.00;99205.44;5029167;28;45382;-71
2022/04/07 11:03:33;;;;;;;;;0.00;0.00;;;;;17.74;73.16;99207.22;5025072;28;47269;-71
2022/04/07 11:05:59;;;;;;;;;2.00;1.00;;;;;18.11;71.55;99198.31;5029293;28;45398;-70
2022/04/07 11:08:25;;;;;;;;;0.00;0.00;;;;;18.23;70.43;99213.06;5029601;28;45319;-70
2022/04/07 11:10:52;;;;;;;;;0.00;0.00;;;;;18.38;70.17;99222.19;5033323;28;45321;-70
2022/04/07 11:13:38;;;;;;;;;0.00;0.00;;;;;18.51;68.52;99211.97;5027307;28;46996;-70
2022/04/07 11:16:15;;;;;;;;;0.00;0.00;;;;;18.65;68.20;99215.94;5027212;28;45755;-71
2022/04/07 11:18:46;;;;;;;;;0.00;0.00;;;;;18.88;67.11;99210.13;5020606;28;45627;-70
2022/04/07 11:21:12;;;;;;;;;0.00;0.00;;;;;19.31;67.24;99225.19;5030216;28;45733;-70
2022/04/07 11:23:40;;;;;;;;;0.00;0.00;;;;;19.71;67.48;99218.41;5025854;28;46169;-71
2022/04/07 11:26:10;;;;;;;;;0.00;0.00;;;;;19.91;65.46;99234.97;5025160;28;45748;-70
2022/04/07 11:28:37;;;;;;;;;0.00;0.00;;;;;19.95;64.73;99236.31;5026418;28;45614;-69
2022/04/07 11:31:04;;;;;;;;;0.00;0.00;;;;;20.11;64.34;99240.88;5029183;28;45902;-68
2022/04/07 11:33:39;;;;;;;;;0.00;0.00;;;;;20.04;63.38;99248.66;5031819;28;46108;-71